Time;durP1;ratioP1;P1;durP2;ratioP2;P2;SDS_P1;SDS_P2;PMS_P1;PMS_P2;Temp;Humidity;BMP_temperature;BMP_pressure;BME280_temperature;BME280_humidity;BME280_pressure;Samples;Min_cycle;Max_cycle;Signal;HPM_P1;HPM_P2
2021/12/18 00:01:20;;;;;;;4.85;2.30;;;;;;;2.66;91.51;100956.81;5116851;28;20524;-76
2021/12/18 00:03:48;;;;;;;5.72;2.38;;;;;;;2.63;91.60;100959.47;5116305;28;20446;-77
2021/12/18 00:06:16;;;;;;;7.65;2.67;;;;;;;2.67;91.75;100962.13;5116995;28;20048;-77
2021/12/18 00:08:44;;;;;;;6.68;2.10;;;;;;;2.66;91.04;100964.81;5116596;28;20047;-76
2021/12/18 00:11:12;;;;;;;7.25;2.50;;;;;;;2.67;90.84;100963.91;5116569;28;20039;-77
2021/12/18 00:13:41;;;;;;;7.18;2.60;;;;;;;2.67;91.16;100954.13;5116622;28;20123;-76
2021/12/18 00:16:09;;;;;;;8.13;2.80;;;;;;;2.64;91.13;100956.81;5116499;28;20055;-77
2021/12/18 00:18:37;;;;;;;10.32;4.07;;;;;;;2.68;91.11;100965.69;5116135;28;20047;-76
2021/12/18 00:21:07;;;;;;;11.23;4.15;;;;;;;2.65;90.43;100961.25;5116401;28;20047;-78
2021/12/18 00:23:35;;;;;;;10.75;3.75;;;;;;;2.61;90.27;100975.50;5116370;28;20048;-77
2021/12/18 00:26:02;;;;;;;13.32;4.57;;;;;;;2.59;89.31;100977.28;5116298;28;20050;-77
2021/12/18 00:28:30;;;;;;;8.00;3.08;;;;;;;2.60;90.24;100979.94;5116279;28;20077;-78
2021/12/18 00:30:59;;;;;;;9.18;3.30;;;;;;;2.58;89.35;100981.72;5116292;28;20397;-76
2021/12/18 00:33:26;;;;;;;10.30;3.78;;;;;;;2.57;90.30;100979.94;5115706;28;20043;-76
2021/12/18 00:35:54;;;;;;;6.20;2.53;;;;;;;2.65;90.64;100987.94;5116120;28;20051;-76
2021/12/18 00:38:28;;;;;;;17.17;6.25;;;;;;;2.61;91.12;100989.72;5099810;28;20443;-76
2021/12/18 00:41:12;;;;;;;13.68;4.80;;;;;;;2.57;91.66;100982.63;5108314;28;20070;-76
2021/12/18 00:44:01;;;;;;;20.90;6.85;;;;;;;2.57;92.21;100981.75;5117348;28;20446;-77
2021/12/18 00:46:30;;;;;;;13.15;4.30;;;;;;;2.55;92.32;100989.75;5115724;27;20044;-77
2021/12/18 00:48:57;;;;;;;7.38;2.72;;;;;;;2.61;91.95;100992.38;5115237;28;20109;-76
2021/12/18 00:51:25;;;;;;;20.98;7.13;;;;;;;2.58;92.28;100994.19;5115726;28;20040;-76
2021/12/18 00:53:53;;;;;;;12.77;3.72;;;;;;;2.52;92.76;100996.91;5115733;28;20039;-82
2021/12/18 00:56:21;;;;;;;13.50;5.40;;;;;;;2.64;92.32;100998.59;5116052;28;20093;-77
2021/12/18 00:58:50;;;;;;;20.73;8.13;;;;;;;2.59;92.13;101006.63;5115589;28;20048;-76
2021/12/18 01:01:19;;;;;;;10.75;4.10;;;;;;;2.61;92.53;101003.06;5115343;28;20055;-76
2021/12/18 01:03:49;;;;;;;9.98;3.63;;;;;;;2.60;92.20;101017.28;5115648;28;20400;-76
2021/12/18 01:06:17;;;;;;;8.60;3.30;;;;;;;2.57;93.08;101013.75;5115925;28;20040;-77
2021/12/18 01:08:45;;;;;;;7.38;2.80;;;;;;;2.57;92.49;101011.97;5095217;28;20044;-76
2021/12/18 01:22:42;;;;;;;9.40;2.60;;;;;;;2.59;92.49;101026.19;5022870;28;20054;-78
2021/12/18 01:22:45;;;;;;;;;;;;;;;2.61;92.05;101028.84;5033155;28;20065;-76
2021/12/18 01:25:13;;;;;;;5.15;2.30;;;;;;;2.65;92.32;101029.72;5033375;28;20007;-77
2021/12/18 01:27:42;;;;;;;7.07;2.60;;;;;;;2.62;92.34;101030.63;5032342;28;20084;-76
2021/12/18 01:30:11;;;;;;;6.35;2.50;;;;;;;2.64;91.77;101031.50;5032183;28;20045;-77
2021/12/18 01:32:39;;;;;;;8.57;2.75;;;;;;;2.59;92.28;101033.31;5032453;28;20049;-78
2021/12/18 01:35:09;;;;;;;10.43;2.53;;;;;;;2.58;91.78;101040.41;5032339;28;20057;-76
2021/12/18 01:37:36;;;;;;;7.18;2.60;;;;;;;2.58;91.72;101042.22;5032239;28;20163;-77
2021/12/18 01:40:05;;;;;;;6.03;2.35;;;;;;;2.60;91.27;101043.97;5035871;28;20041;-81
2021/12/18 01:43:20;;;;;;;9.63;2.90;;;;;;;2.63;91.08;101036.84;5052128;28;20502;-76
2021/12/18 01:45:46;;;;;;;5.93;2.42;;;;;;;2.60;91.55;101027.94;5051579;28;20056;-76
2021/12/18 01:51:22;;;;;;;7.10;2.47;;;;;;;2.58;91.73;101013.75;5116237;28;20051;-79
2021/12/18 01:53:52;;;;;;;4.43;2.15;;;;;;;2.56;91.43;100999.53;5115458;28;20499;-77
2021/12/18 01:56:20;;;;;;;7.97;2.60;;;;;;;2.59;90.40;100995.97;5114540;28;20058;-77
2021/12/18 01:58:48;;;;;;;6.35;2.10;;;;;;;2.61;89.93;100997.72;5114531;28;20055;-77
2021/12/18 02:01:16;;;;;;;6.05;2.50;;;;;;;2.62;89.96;100993.28;5114147;28;20055;-77
2021/12/18 02:03:45;;;;;;;7.45;2.35;;;;;;;2.67;89.55;100993.28;5114477;28;20044;-77
2021/12/18 02:06:14;;;;;;;7.43;2.30;;;;;;;2.60;90.22;100985.28;5114300;28;20039;-77
2021/12/18 02:08:44;;;;;;;4.53;2.25;;;;;;;2.60;88.70;100995.94;5114154;28;20426;-76
2021/12/18 02:11:23;;;;;;;6.80;2.30;;;;;;;2.60;89.50;101003.94;5114349;28;20043;-78
2021/12/18 02:19:37;;;;;;;11.00;2.35;;;;;;;2.61;89.80;101024.38;5051363;28;20045;-76
2021/12/18 02:22:06;;;;;;;6.25;2.30;;;;;;;2.53;89.27;101026.22;5051501;28;20115;-79
2021/12/18 02:24:34;;;;;;;6.28;2.45;;;;;;;2.57;89.80;101030.63;5051342;28;20053;-77
2021/12/18 02:27:02;;;;;;;7.35;2.45;;;;;;;2.58;90.45;101044.88;5051269;28;20521;-77
2021/12/18 02:29:32;;;;;;;6.82;2.60;;;;;;;2.57;89.28;101027.09;5051019;28;20060;-76
2021/12/18 02:31:59;;;;;;;4.30;2.28;;;;;;;2.60;89.52;101027.94;5051902;28;20107;-77
2021/12/18 02:34:30;;;;;;;7.03;2.35;;;;;;;2.64;89.23;101022.59;5051236;28;20196;-77
2021/12/18 02:37:03;;;;;;;4.90;2.20;;;;;;;2.57;89.06;101014.63;5052701;28;20122;-77
2021/12/18 02:40:47;;;;;;;7.07;2.60;;;;;;;2.67;88.22;101027.94;5041780;28;20053;-77
2021/12/18 02:42:44;;;;;;;6.63;2.35;;;;;;;2.47;89.17;101036.91;5030935;28;20506;-75
2021/12/18 02:45:12;;;;;;;8.85;3.10;;;;;;;2.53;89.39;101039.53;5031248;28;20049;-76
2021/12/18 02:47:40;;;;;;;4.90;2.22;;;;;;;2.63;89.15;101035.06;5031101;28;20063;-76
2021/12/18 02:50:08;;;;;;;7.90;2.70;;;;;;;2.63;89.71;101037.75;5018285;28;20077;-76
2021/12/18 02:52:35;;;;;;;8.13;3.00;;;;;;;2.59;90.01;101034.19;5020407;28;20053;-78
2021/12/18 02:55:05;;;;;;;7.32;2.63;;;;;;;2.66;88.92;101034.19;5052960;28;20048;-76
2021/12/18 02:57:32;;;;;;;8.20;2.70;;;;;;;2.59;88.34;101038.66;5052643;28;20053;-79
2021/12/18 03:00:00;;;;;;;6.60;2.45;;;;;;;2.65;89.17;101035.94;5053150;28;20040;-77
2021/12/18 03:02:32;;;;;;;9.80;3.00;;;;;;;2.67;89.57;101035.97;5053093;28;20072;-76
2021/12/18 03:05:05;;;;;;;7.90;2.83;;;;;;;2.58;90.86;101029.75;5054295;28;20482;-77
2021/12/18 03:07:33;;;;;;;7.68;3.10;;;;;;;2.59;91.35;101023.50;5053026;28;20049;-78
2021/12/18 03:24:20;;;;;;;8.18;3.30;;;;;;;2.42;90.34;100990.72;4991631;28;20058;-78
2021/12/18 03:26:48;;;;;;;9.80;3.35;;;;;;;2.37;90.09;100989.84;4991246;28;20052;-79
2021/12/18 03:29:17;;;;;;;6.95;2.95;;;;;;;2.41;89.52;101002.28;4991413;28;20079;-80
2021/12/18 03:31:44;;;;;;;8.50;3.25;;;;;;;2.46;89.37;101004.03;4991861;28;20061;-76
2021/12/18 03:34:12;;;;;;;8.82;3.05;;;;;;;2.48;89.82;101001.34;4995198;28;20050;-77
2021/12/18 03:36:40;;;;;;;7.05;2.80;;;;;;;2.39;90.01;100999.59;4995133;28;20129;-76
2021/12/18 03:39:07;;;;;;;9.77;3.17;;;;;;;2.44;90.51;101008.47;4994998;28;20050;-77
2021/12/18 03:41:35;;;;;;;7.00;2.75;;;;;;;2.53;89.46;101022.69;5010664;28;20391;-77
2021/12/18 03:44:03;;;;;;;8.82;3.13;;;;;;;2.41;89.82;101020.94;5014561;28;20057;-77
2021/12/18 03:46:32;;;;;;;7.95;2.90;;;;;;;2.41;90.09;101021.81;5014441;28;20057;-77
2021/12/18 03:48:59;;;;;;;6.68;2.97;;;;;;;2.49;89.37;101024.44;5023124;28;20060;-76
2021/12/18 03:51:27;;;;;;;7.93;3.05;;;;;;;2.43;89.65;101025.34;5096544;28;20052;-79
2021/12/18 03:53:54;;;;;;;7.13;2.60;;;;;;;2.42;89.84;101020.03;5096451;28;20123;-76
2021/12/18 03:56:22;;;;;;;7.43;3.38;;;;;;;2.42;89.94;101022.72;5095916;28;20059;-76
2021/12/18 03:58:50;;;;;;;7.38;2.85;;;;;;;2.41;90.33;101021.81;5096307;28;20439;-76
2021/12/18 04:01:17;;;;;;;10.68;4.72;;;;;;;2.39;90.20;101028.06;5096467;28;20044;-77
2021/12/18 04:03:46;;;;;;;9.85;3.63;;;;;;;2.44;90.43;101026.25;5096282;28;20050;-76
2021/12/18 04:06:14;;;;;;;6.22;3.08;;;;;;;2.41;90.60;101036.94;5096278;28;20427;-76
2021/12/18 04:08:42;;;;;;;7.95;3.10;;;;;;;2.49;90.15;101035.13;5096018;28;20117;-77
2021/12/18 04:11:09;;;;;;;9.55;3.13;;;;;;;2.47;90.10;101044.91;5095770;28;20118;-77
2021/12/18 04:13:37;;;;;;;9.10;3.00;;;;;;;2.46;90.65;101037.81;5096147;28;20102;-77
2021/12/18 04:16:05;;;;;;;8.38;2.83;;;;;;;2.51;89.15;101029.78;5095918;28;20051;-79
2021/12/18 04:18:32;;;;;;;6.65;2.80;;;;;;;2.44;89.81;101045.78;5095896;28;20055;-76
2021/12/18 04:21:01;;;;;;;7.53;2.80;;;;;;;2.44;89.68;101037.78;5095955;28;20040;-77
2021/12/18 04:23:29;;;;;;;7.30;2.58;;;;;;;2.52;88.43;101034.25;5099957;28;20040;-76
2021/12/18 04:25:57;;;;;;;11.00;3.55;;;;;;;2.53;88.03;101036.00;5115881;28;20040;-76
2021/12/18 04:28:25;;;;;;;9.38;3.60;;;;;;;2.47;88.23;101036.91;5116236;28;20112;-76
2021/12/18 04:30:53;;;;;;;7.85;2.45;;;;;;;2.34;87.82;101051.19;5116212;28;20047;-76
2021/12/18 04:33:21;;;;;;;4.60;2.20;;;;;;;2.36;88.58;101050.28;5115960;28;20055;-77
2021/12/18 04:35:49;;;;;;;6.13;2.42;;;;;;;2.42;88.55;101038.72;5115937;28;20047;-78
2021/12/18 04:38:18;;;;;;;8.60;2.55;;;;;;;2.31;89.19;101046.75;5115210;28;20400;-76
2021/12/18 04:40:45;;;;;;;7.97;2.50;;;;;;;2.30;89.54;101051.19;5104769;28;20036;-77
2021/12/18 04:43:13;;;;;;;5.63;2.30;;;;;;;2.26;89.69;101044.09;5115553;28;20101;-77
2021/12/18 04:45:41;;;;;;;5.07;2.20;;;;;;;2.27;89.53;101040.53;5115930;28;20046;-76
2021/12/18 04:48:08;;;;;;;9.48;2.55;;;;;;;2.26;89.94;101037.88;5115580;28;20396;-76
2021/12/18 04:50:36;;;;;;;7.90;2.45;;;;;;;2.29;90.14;101032.53;5115663;28;20059;-77
2021/12/18 04:53:03;;;;;;;7.07;2.38;;;;;;;2.30;89.92;101040.53;5115812;28;20449;-77
2021/12/18 04:55:32;;;;;;;8.23;2.40;;;;;;;2.31;90.21;101039.63;5099722;28;20396;-76
2021/12/18 04:58:00;;;;;;;8.13;2.63;;;;;;;2.33;90.21;101034.28;5095075;28;20040;-77
2021/12/18 05:00:37;;;;;;;7.65;2.92;;;;;;;2.34;89.90;101051.19;5095293;28;20051;-77
2021/12/18 05:03:06;;;;;;;7.45;2.50;;;;;;;2.33;90.37;101044.09;5096519;28;20044;-76
2021/12/18 05:05:34;;;;;;;5.85;2.60;;;;;;;2.29;91.21;101054.75;5095042;28;20373;-78
2021/12/18 05:08:02;;;;;;;7.57;2.40;;;;;;;2.25;91.31;101061.00;5094653;28;20048;-76
2021/12/18 05:10:30;;;;;;;6.47;2.90;;;;;;;2.29;91.29;101064.53;5094855;28;20051;-76
2021/12/18 05:12:59;;;;;;;9.07;3.00;;;;;;;2.24;92.28;101056.53;5094871;28;20036;-77
2021/12/18 05:15:27;;;;;;;11.07;4.47;;;;;;;2.24;91.81;101048.53;5094666;28;20047;-76
2021/12/18 05:17:55;;;;;;;11.35;4.45;;;;;;;2.34;91.54;101040.53;5094730;28;20389;-76
2021/12/18 05:20:22;;;;;;;13.50;4.78;;;;;;;2.36;90.83;101042.28;5094850;28;20048;-77
2021/12/18 05:22:49;;;;;;;9.73;4.10;;;;;;;2.34;91.36;101051.19;5102260;28;20047;-76
2021/12/18 05:25:17;;;;;;;7.43;3.00;;;;;;;2.26;91.42;101054.78;5115323;28;20047;-77
2021/12/18 05:27:45;;;;;;;7.63;2.88;;;;;;;2.35;91.21;101050.28;5115011;28;20044;-77
2021/12/18 05:30:14;;;;;;;8.38;3.08;;;;;;;2.32;91.25;101053.84;5114915;28;20495;-76
2021/12/18 05:32:42;;;;;;;8.32;3.55;;;;;;;2.35;91.47;101047.63;5114880;28;20089;-76
2021/12/18 05:35:10;;;;;;;7.60;2.78;;;;;;;2.33;91.80;101055.63;5114929;28;20047;-76
2021/12/18 05:37:47;;;;;;;6.32;2.50;;;;;;;2.38;90.97;101047.63;5114454;28;20078;-76
2021/12/18 05:40:17;;;;;;;10.35;2.65;;;;;;;2.36;90.66;101046.72;5103678;28;20042;-77
2021/12/18 05:42:45;;;;;;;5.70;2.65;;;;;;;2.31;91.02;101050.31;5114666;28;20412;-77
2021/12/18 05:45:15;;;;;;;6.10;2.35;;;;;;;2.27;90.33;101052.97;5114721;28;20051;-76
2021/12/18 05:47:43;;;;;;;7.25;2.65;;;;;;;2.28;91.23;101057.41;5114544;28;20412;-76
2021/12/18 05:50:12;;;;;;;8.65;2.70;;;;;;;2.25;90.89;101058.34;5114594;28;20081;-77
2021/12/18 05:52:39;;;;;;;9.60;3.15;;;;;;;2.31;90.73;101071.63;5114251;28;20522;-76
2021/12/18 05:55:09;;;;;;;8.23;2.60;;;;;;;2.30;90.78;101068.97;5113833;28;20431;-76
2021/12/18 05:57:36;;;;;;;11.85;4.00;;;;;;;2.26;91.72;101072.53;5114346;28;20052;-76
2021/12/18 06:00:07;;;;;;;9.50;3.17;;;;;;;2.26;90.51;101073.44;5114600;28;20052;-79
2021/12/18 06:02:36;;;;;;;5.72;2.53;;;;;;;2.31;91.18;101076.97;5115147;28;20488;-76
2021/12/18 06:05:05;;;;;;;7.72;2.58;;;;;;;2.30;91.68;101072.53;5114471;28;20046;-77
2021/12/18 06:07:39;;;;;;;6.78;2.30;;;;;;;2.29;91.55;101062.75;5113866;28;20046;-77
2021/12/18 06:10:07;;;;;;;9.05;3.22;;;;;;;2.40;91.16;101061.84;5114793;28;20052;-78
2021/12/18 06:12:35;;;;;;;7.03;2.70;;;;;;;2.33;91.80;101062.75;5114300;28;20048;-77
2021/12/18 06:15:02;;;;;;;6.50;2.60;;;;;;;2.34;91.35;101056.53;5114224;28;20117;-77
2021/12/18 06:17:30;;;;;;;26.92;8.27;;;;;;;2.36;91.63;101054.75;5114147;28;20055;-76
2021/12/18 06:19:59;;;;;;;18.23;6.57;;;;;;;2.42;90.87;101049.38;5114140;28;20047;-75
2021/12/18 06:22:26;;;;;;;6.70;2.67;;;;;;;2.37;91.21;101040.50;5113781;28;20055;-75
2021/12/18 06:24:54;;;;;;;5.90;2.20;;;;;;;2.31;90.97;101036.97;5114009;28;20100;-76
2021/12/18 06:27:22;;;;;;;6.65;3.00;;;;;;;2.35;91.29;101040.50;5113975;28;20062;-75
2021/12/18 06:29:49;;;;;;;8.85;2.80;;;;;;;2.35;92.08;101047.63;5114979;28;20047;-78
2021/12/18 06:32:17;;;;;;;38.38;18.90;;;;;;;2.38;91.66;101051.16;5113866;28;20043;-75
2021/12/18 06:34:44;;;;;;;10.93;3.47;;;;;;;2.42;91.00;101058.25;5113538;28;20050;-75
2021/12/18 06:37:13;;;;;;;16.95;4.22;;;;;;;2.38;91.26;101051.16;5113783;28;20051;-87
2021/12/18 06:39:41;;;;;;;20.65;4.93;;;;;;;2.37;91.76;101059.19;5101694;28;20047;-76
2021/12/18 06:42:08;;;;;;;14.13;3.28;;;;;;;2.42;91.40;101066.25;5114018;28;20377;-76
2021/12/18 06:44:36;;;;;;;21.30;5.07;;;;;;;2.36;91.78;101074.28;5113918;28;20054;-75
2021/12/18 06:47:04;;;;;;;146.23;75.88;;;;;;;2.37;92.18;101077.84;5113899;28;20043;-76
2021/12/18 06:49:32;;;;;;;20.77;12.30;;;;;;;2.35;92.34;101068.97;5112193;28;20460;-71
2021/12/18 06:51:59;;;;;;;27.35;12.43;;;;;;;2.34;92.77;101069.84;5113740;28;20113;-75
2021/12/18 06:54:28;;;;;;;29.55;14.20;;;;;;;2.38;92.36;101064.50;5113140;28;20511;-75
2021/12/18 06:56:56;;;;;;;91.72;56.20;;;;;;;2.40;92.41;101068.03;5113375;28;20066;-75
2021/12/18 06:59:23;;;;;;;45.63;26.75;;;;;;;2.40;92.20;101060.03;5114007;28;20073;-90
2021/12/18 07:01:52;;;;;;;121.68;58.08;;;;;;;2.38;92.15;101055.63;5113916;28;20097;-76
2021/12/18 07:04:20;;;;;;;139.65;63.70;;;;;;;2.46;92.40;101059.13;5113228;28;20104;-76
2021/12/18 07:06:47;;;;;;;142.93;77.00;;;;;;;2.44;92.97;101053.78;5115985;28;20415;-76
2021/12/18 07:09:15;;;;;;;213.10;118.35;;;;;;;2.44;93.05;101058.25;5117886;28;20108;-76
2021/12/18 07:11:45;;;;;;;84.30;43.83;;;;;;;2.45;93.00;101054.69;5117789;28;20484;-76
2021/12/18 07:14:13;;;;;;;29.33;11.55;;;;;;;2.45;93.54;101057.38;5118062;28;20039;-76
2021/12/18 07:16:41;;;;;;;27.30;11.68;;;;;;;2.46;93.64;101049.38;5117621;28;20054;-76
2021/12/18 07:19:08;;;;;;;229.05;85.20;;;;;;;2.49;93.33;101047.59;5117432;28;20054;-76
2021/12/18 07:21:36;;;;;;;64.57;24.75;;;;;;;2.44;93.27;101044.94;5117690;28;20040;-76
2021/12/18 07:24:05;;;;;;;41.00;13.43;;;;;;;2.46;93.59;101040.47;5117710;28;20048;-75
2021/12/18 07:26:32;;;;;;;27.48;10.65;;;;;;;2.45;93.24;101031.59;5117514;28;20048;-77
2021/12/18 07:29:01;;;;;;;21.05;7.88;;;;;;;2.45;93.09;101031.59;5117642;28;20039;-75
2021/12/18 07:31:29;;;;;;;28.88;10.90;;;;;;;2.48;93.73;101033.34;5117576;28;20043;-77
2021/12/18 07:33:57;;;;;;;20.73;7.10;;;;;;;2.51;94.01;101021.78;5117074;28;20054;-76
2021/12/18 07:36:24;;;;;;;76.18;32.42;;;;;;;2.49;93.43;101031.59;5117219;28;20043;-76
2021/12/18 07:38:52;;;;;;;105.43;41.47;;;;;;;2.53;93.64;101015.53;5111560;28;20093;-77
2021/12/18 07:41:19;;;;;;;151.45;51.38;;;;;;;2.53;93.45;101020.88;5111173;28;20499;-77
2021/12/18 07:43:47;;;;;;;43.50;20.25;;;;;;;2.57;93.11;101021.75;5117348;28;20039;-78
2021/12/18 07:46:16;;;;;;;31.08;13.15;;;;;;;2.53;93.05;101018.22;5113389;28;20543;-75
2021/12/18 07:48:44;;;;;;;100.68;46.35;;;;;;;2.57;93.11;101021.75;5113348;28;20055;-75
2021/12/18 07:51:12;;;;;;;95.43;42.97;;;;;;;2.57;92.84;101019.97;5114269;28;20047;-75
2021/12/18 07:53:39;;;;;;;79.65;34.28;;;;;;;2.57;92.92;101016.44;5113635;28;20047;-77
2021/12/18 07:56:09;;;;;;;71.53;32.63;;;;;;;2.57;92.76;101022.63;5113335;28;20047;-74
2021/12/18 07:58:37;;;;;;;299.35;101.80;;;;;;;2.52;93.10;101026.22;5113379;28;20043;-74
2021/12/18 08:01:05;;;;;;;59.88;26.17;;;;;;;2.52;93.11;101024.44;5113234;28;20108;-75
2021/12/18 08:03:34;;;;;;;38.47;17.38;;;;;;;2.57;93.39;101025.31;5110798;28;20412;-76
2021/12/18 08:06:02;;;;;;;21.45;8.75;;;;;;;2.58;93.17;101035.06;5113358;28;20131;-75
2021/12/18 08:08:29;;;;;;;23.75;9.18;;;;;;;2.58;93.28;101029.75;5113120;28;20508;-82
2021/12/18 08:10:57;;;;;;;20.02;9.90;;;;;;;2.63;93.00;101028.84;5113123;28;20054;-79
2021/12/18 08:13:25;;;;;;;25.00;9.57;;;;;;;2.60;93.44;101033.28;5112733;28;20048;-75
2021/12/18 08:15:52;;;;;;;46.78;24.52;;;;;;;2.59;93.65;101042.19;5103393;28;20077;-75
2021/12/18 08:18:20;;;;;;;22.23;9.20;;;;;;;2.60;93.56;101043.09;5091469;28;20052;-76
2021/12/18 08:20:51;;;;;;;21.10;8.80;;;;;;;2.65;93.16;101048.38;5093245;28;20044;-75
2021/12/18 08:23:19;;;;;;;221.45;68.55;;;;;;;2.77;92.97;101043.00;5125951;27;20035;-75
2021/12/18 08:25:46;;;;;;;494.67;195.70;;;;;;;2.76;93.44;101035.91;5127531;27;20459;-81
2021/12/18 08:28:14;;;;;;;188.95;68.10;;;;;;;2.78;93.44;101036.78;5124645;27;20050;-80
2021/12/18 08:30:42;;;;;;;91.68;37.22;;;;;;;2.75;93.60;101026.13;5127021;27;20044;-76
2021/12/18 08:33:10;;;;;;;70.72;34.03;;;;;;;2.80;92.76;101023.41;5124396;27;20483;-75
2021/12/18 08:35:38;;;;;;;95.90;45.78;;;;;;;2.80;93.53;101029.66;5124855;27;20067;-80
2021/12/18 08:38:07;;;;;;;107.32;56.20;;;;;;;2.80;93.52;101029.66;5126706;27;20043;-76
2021/12/18 08:40:36;;;;;;;35.72;18.58;;;;;;;2.95;91.76;101026.00;5124728;27;20476;-75
2021/12/18 08:43:04;;;;;;;27.17;11.65;;;;;;;2.90;92.17;101026.03;5116106;28;20055;-76
2021/12/18 08:45:31;;;;;;;66.88;28.02;;;;;;;2.92;92.56;101028.72;5115292;28;20044;-78
2021/12/18 08:47:59;;;;;;;111.93;46.00;;;;;;;2.90;92.59;101018.03;5115741;28;20413;-80
2021/12/18 08:50:27;;;;;;;42.45;16.90;;;;;;;2.87;92.22;101014.50;5116879;28;20067;-82
2021/12/18 08:52:55;;;;;;;28.70;12.13;;;;;;;2.89;92.25;101012.72;5125010;27;20071;-77
2021/12/18 08:55:24;;;;;;;30.27;12.48;;;;;;;2.86;92.33;101005.59;5125821;27;20054;-80
2021/12/18 08:57:52;;;;;;;252.50;83.38;;;;;;;2.99;91.78;101001.06;5118626;27;20051;-77
2021/12/18 09:00:22;;;;;;;79.07;34.80;;;;;;;2.86;92.42;100999.38;5117407;27;20484;-77
2021/12/18 09:02:57;;;;;;;45.63;18.25;;;;;;;2.86;92.61;100996.72;5124980;27;20047;-76
2021/12/18 09:05:25;;;;;;;62.58;25.00;;;;;;;2.79;92.63;100992.28;5123654;27;20047;-79
2021/12/18 09:07:52;;;;;;;59.65;23.33;;;;;;;2.92;92.03;100983.34;5126091;27;20043;-87
2021/12/18 09:10:21;;;;;;;42.25;19.25;;;;;;;2.94;91.90;100968.19;5128880;27;20043;-77
2021/12/18 09:12:50;;;;;;;36.85;15.75;;;;;;;2.89;92.48;100964.69;5128784;27;20047;-83
2021/12/18 09:15:18;;;;;;;32.53;15.02;;;;;;;2.94;91.64;100967.28;5114965;28;20043;-77
2021/12/18 09:17:45;;;;;;;119.47;60.22;;;;;;;2.98;91.87;100961.03;5114805;28;20051;-76
2021/12/18 09:20:14;;;;;;;100.95;48.47;;;;;;;2.97;92.10;100965.50;5115225;28;20048;-75
2021/12/18 09:22:41;;;;;;;393.67;145.25;;;;;;;2.96;92.46;100962.81;5115354;28;20058;-76
2021/12/18 09:25:10;;;;;;;104.20;38.85;;;;;;;2.96;91.79;100966.41;5114708;28;20043;-77
2021/12/18 09:27:39;;;;;;;173.68;65.43;;;;;;;2.90;92.11;100971.78;5114206;27;20036;-75
2021/12/18 09:30:11;;;;;;;378.48;135.70;;;;;;;2.89;92.55;100962.88;5113249;28;20111;-76
2021/12/18 09:32:39;;;;;;;421.08;149.10;;;;;;;2.93;92.92;100954.84;5115024;28;20405;-76
2021/12/18 09:35:09;;;;;;;338.95;123.43;;;;;;;2.90;92.59;100956.63;5116641;28;20119;-76
2021/12/18 09:37:36;;;;;;;145.00;48.58;;;;;;;2.89;92.69;100954.88;5114216;28;20043;-75
2021/12/18 09:40:05;;;;;;;65.57;31.75;;;;;;;2.93;92.23;100946.84;5103561;27;20084;-79
2021/12/18 09:42:32;;;;;;;114.53;48.60;;;;;;;2.99;92.53;100952.13;5135193;27;20043;-76
2021/12/18 09:45:00;;;;;;;73.43;34.05;;;;;;;2.89;92.56;100948.66;5126351;27;20046;-77
2021/12/18 09:47:29;;;;;;;158.63;62.28;;;;;;;2.97;92.61;100945.91;5113410;27;20055;-82
2021/12/18 09:49:57;;;;;;;177.98;68.40;;;;;;;2.98;92.42;100945.91;5114384;28;20063;-75
2021/12/18 09:52:26;;;;;;;82.28;33.38;;;;;;;2.89;92.61;100930.84;5114641;28;20047;-75
2021/12/18 09:54:56;;;;;;;57.92;30.88;;;;;;;2.85;92.62;100931.78;5114659;28;20047;-75
2021/12/18 09:57:24;;;;;;;64.93;29.02;;;;;;;2.88;93.28;100920.19;5114861;28;20036;-74
2021/12/18 09:59:51;;;;;;;45.72;20.95;;;;;;;2.89;92.23;100909.50;5114226;28;20054;-75
2021/12/18 10:02:19;;;;;;;35.92;17.00;;;;;;;2.83;92.99;100906.88;5114451;28;20561;-75
2021/12/18 10:04:48;;;;;;;24.40;11.73;;;;;;;2.80;93.43;100906.91;5114735;28;20374;-75
2021/12/18 10:07:18;;;;;;;44.35;21.40;;;;;;;2.92;92.97;100905.03;5113264;28;20497;-73
2021/12/18 10:09:46;;;;;;;87.35;40.83;;;;;;;2.86;93.60;100906.84;5111177;28;20088;-75
2021/12/18 10:12:16;;;;;;;50.10;25.90;;;;;;;2.96;93.80;100901.44;5109562;28;20051;-74
2021/12/18 10:14:45;;;;;;;48.88;21.55;;;;;;;2.91;93.49;100898.81;5107881;27;20045;-83
2021/12/18 10:17:25;;;;;;;38.65;16.98;;;;;;;2.97;93.35;100892.53;5117678;27;20053;-76
2021/12/18 10:19:56;;;;;;;49.65;20.90;;;;;;;2.86;93.24;100882.84;5120247;27;20044;-75
2021/12/18 10:22:24;;;;;;;39.50;17.75;;;;;;;2.88;93.59;100886.38;5118740;27;20047;-74
2021/12/18 10:25:04;;;;;;;34.83;15.95;;;;;;;3.03;93.70;100892.47;5126005;27;20042;-74
2021/12/18 10:27:32;;;;;;;38.40;17.17;;;;;;;3.15;92.65;100897.72;5110230;28;20043;-74
2021/12/18 10:30:13;;;;;;;36.55;15.88;;;;;;;3.26;91.94;100888.72;5117971;27;20395;-74
2021/12/18 10:32:41;;;;;;;45.88;20.70;;;;;;;3.17;92.02;100887.91;5118221;27;20043;-78
2021/12/18 10:35:10;;;;;;;52.17;22.23;;;;;;;3.33;91.33;100885.09;5121613;27;20067;-76
2021/12/18 10:37:37;;;;;;;35.47;17.35;;;;;;;3.19;92.20;100875.44;5120680;27;20043;-75
2021/12/18 10:40:08;;;;;;;37.47;16.67;;;;;;;3.22;92.08;100873.63;5119634;27;20039;-74
2021/12/18 10:42:39;;;;;;;25.30;13.38;;;;;;;3.27;92.36;100861.13;5126033;27;20039;-81
2021/12/18 10:45:16;;;;;;;392.95;133.32;;;;;;;3.12;93.15;100863.06;5115463;27;20046;-86
2021/12/18 10:47:53;;;;;;;117.18;48.20;;;;;;;3.19;92.71;100867.44;5126691;27;20050;-79
2021/12/18 10:50:35;;;;;;;191.82;72.05;;;;;;;3.23;92.50;100854.91;5131609;27;20055;-76
2021/12/18 10:53:08;;;;;;;174.73;68.18;;;;;;;3.16;93.01;100854.13;5122467;27;20048;-86
2021/12/18 10:55:41;;;;;;;67.10;32.00;;;;;;;3.19;92.99;100848.75;5112517;28;20044;-76
2021/12/18 10:58:11;;;;;;;69.30;31.92;;;;;;;3.18;93.30;100838.06;5112913;28;20044;-76
2021/12/18 11:00:55;;;;;;;51.65;25.40;;;;;;;3.19;93.20;100835.38;5125774;27;20060;-84
2021/12/18 11:03:33;;;;;;;50.88;26.27;;;;;;;3.19;93.70;100835.38;5129376;27;20055;-76
2021/12/18 11:06:15;;;;;;;41.08;22.63;;;;;;;3.20;93.23;100825.56;5131096;27;20419;-78
2021/12/18 11:08:56;;;;;;;70.35;35.55;;;;;;;3.27;92.92;100827.31;5131126;27;20051;-85
2021/12/18 11:14:11;;;;;;;43.10;20.25;;;;;;;3.26;93.26;100816.63;5047408;28;20517;-86
2021/12/18 11:16:41;;;;;;;48.67;22.75;;;;;;;3.11;93.90;100809.66;5047277;28;20074;-75
2021/12/18 11:19:13;;;;;;;37.80;18.85;;;;;;;3.14;94.13;100810.53;5047381;28;20072;-76
2021/12/18 11:21:46;;;;;;;52.33;26.45;;;;;;;3.19;94.17;100810.47;5049029;28;20494;-76
2021/12/18 11:24:14;;;;;;;70.07;31.77;;;;;;;3.13;94.70;100806.09;5048835;28;20067;-81
2021/12/18 11:26:46;;;;;;;40.28;17.85;;;;;;;3.07;94.60;100802.59;5046861;28;20155;-76
2021/12/18 11:29:15;;;;;;;47.67;22.30;;;;;;;3.12;94.42;100807.00;5047689;28;20076;-76
2021/12/18 11:31:43;;;;;;;49.92;26.50;;;;;;;3.09;95.02;100792.78;5047214;28;20179;-76
2021/12/18 11:34:11;;;;;;;48.58;22.20;;;;;;;3.06;95.22;100795.47;5047180;28;20142;-75
2021/12/18 11:36:43;;;;;;;35.70;17.67;;;;;;;3.16;94.97;100791.81;5048035;28;20410;-74
2021/12/18 11:39:13;;;;;;;27.25;15.65;;;;;;;3.13;95.26;100786.50;5042303;28;20061;-76
2021/12/18 11:41:41;;;;;;;40.28;21.20;;;;;;;3.01;96.20;100777.72;5030488;28;20054;-78
2021/12/18 11:44:33;;;;;;;33.45;15.82;;;;;;;3.17;95.19;100786.47;5030647;28;20531;-75
2021/12/18 11:47:25;;;;;;;25.00;14.32;;;;;;;3.02;96.52;100791.94;5028199;28;20115;-77
2021/12/18 11:49:54;;;;;;;56.83;26.13;;;;;;;3.14;95.42;100791.84;5031209;28;20100;-77
2021/12/18 11:52:23;;;;;;;42.10;21.08;;;;;;;3.12;96.12;100790.97;5086727;28;20064;-76
2021/12/18 11:54:52;;;;;;;37.63;18.27;;;;;;;3.20;95.59;100790.88;5096164;28;20044;-76
2021/12/18 11:57:40;;;;;;;38.63;19.52;;;;;;;3.16;95.82;100786.47;5096421;28;20040;-77
2021/12/18 12:00:10;;;;;;;42.25;21.85;;;;;;;3.06;96.69;100785.69;5096647;28;20048;-77
2021/12/18 12:02:45;;;;;;;41.80;21.83;;;;;;;2.82;98.86;100781.47;5096224;28;20044;-76
2021/12/18 12:05:14;;;;;;;27.60;15.80;;;;;;;2.88;98.39;100776.97;5096337;28;20069;-76
2021/12/18 12:07:44;;;;;;;39.42;18.98;;;;;;;2.96;97.92;100776.00;5107814;28;20489;-75
2021/12/18 12:10:21;;;;;;;37.25;18.90;;;;;;;2.94;98.31;100769.78;5116155;28;20040;-83